createdAt,value
2022-07-27T00:04:06.751Z,80.7
2022-07-27T00:09:11.591Z,80.2
2022-07-27T00:14:14.704Z,80
2022-07-27T00:19:19.239Z,79.3
2022-07-27T00:24:23.785Z,79.3
2022-07-27T00:29:27.304Z,79.5
2022-07-27T00:34:31.839Z,79.3
2022-07-27T00:39:36.365Z,79
2022-07-27T00:44:39.923Z,79
2022-07-27T00:49:44.525Z,79
2022-07-27T00:54:48.990Z,79.5
2022-07-27T00:59:52.557Z,79.5
2022-07-27T01:04:57.205Z,79.2
2022-07-27T01:10:00.621Z,79.5
2022-07-27T01:15:05.205Z,79.5
2022-07-27T01:20:09.704Z,79.5
2022-07-27T01:25:13.249Z,79.2
2022-07-27T01:30:17.832Z,79.6
2022-07-27T01:35:22.337Z,79.1
2022-07-27T01:40:25.889Z,79.2
2022-07-27T01:45:30.409Z,79.4
2022-07-27T01:50:34.937Z,79.7
2022-07-27T01:55:39.491Z,79.3
2022-07-27T02:00:43.006Z,79.9
2022-07-27T02:05:47.683Z,79.6
2022-07-27T02:10:52.099Z,79.9
2022-07-27T02:15:55.689Z,80.7
2022-07-27T02:21:00.158Z,81.4
2022-07-27T02:26:04.696Z,81.6
2022-07-27T02:31:08.259Z,81.8
2022-07-27T02:36:12.816Z,82.5
2022-07-27T02:41:17.336Z,82.6
2022-07-27T02:46:20.950Z,82.6
2022-07-27T02:51:25.436Z,82.9
2022-07-27T02:56:29.942Z,83.5
2022-07-27T03:01:34.544Z,83.4
2022-07-27T03:06:38.046Z,82.9
2022-07-27T03:11:42.566Z,83.1
2022-07-27T03:16:47.090Z,83
2022-07-27T03:21:50.631Z,83.1
2022-07-27T03:26:55.165Z,83.5
2022-07-27T03:31:59.722Z,83.3
2022-07-27T03:37:03.255Z,83.3
2022-07-27T03:42:07.819Z,83.8
2022-07-27T03:47:12.322Z,84.1
2022-07-27T03:52:18.015Z,83.8
2022-07-27T03:57:20.412Z,84
2022-07-27T04:02:25.059Z,84
2022-07-27T04:07:29.476Z,84.4
2022-07-27T04:12:33.057Z,84.8
2022-07-27T04:17:56.265Z,84.5
2022-07-27T04:22:42.092Z,84.7
2022-07-27T04:27:45.661Z,85.2
2022-07-27T04:32:50.174Z,85
2022-07-27T04:37:59.193Z,84.6
2022-07-27T04:42:58.267Z,84.1
2022-07-27T04:48:02.828Z,84.7
2022-07-27T04:53:07.381Z,84.3
2022-07-27T04:58:10.937Z,84.2
2022-07-27T05:03:15.433Z,84.2
2022-07-27T05:08:19.956Z,84.3
2022-07-27T05:13:24.532Z,83.9
2022-07-27T05:18:28.078Z,81.9
2022-07-27T05:23:31.623Z,79.8
2022-07-27T05:28:36.133Z,78.5
2022-07-27T05:33:43.956Z,76.8
2022-07-27T05:38:44.282Z,77.9
2022-07-27T05:43:48.755Z,75.4
2022-07-27T05:48:53.450Z,73.4
2022-07-27T05:53:57.823Z,73.3
2022-07-27T05:59:05.100Z,73.4
2022-07-27T06:04:05.935Z,72.5
2022-07-27T06:09:10.739Z,72.8
2022-07-27T06:14:14.015Z,70.3
2022-07-27T06:19:18.535Z,70
2022-07-27T06:24:23.048Z,67.8
2022-07-27T06:29:26.591Z,69
2022-07-27T06:34:31.137Z,69.9
2022-07-27T06:39:35.707Z,67.5
2022-07-27T06:44:39.241Z,67.5
2022-07-27T06:49:43.785Z,66.7
2022-07-27T06:54:48.313Z,65.4
2022-07-27T06:59:52.856Z,63
2022-07-27T07:04:56.379Z,64.7
2022-07-27T07:10:00.935Z,62
2022-07-27T07:15:05.446Z,64.2
2022-07-27T07:20:08.985Z,62.9
2022-07-27T07:25:13.531Z,62.6
2022-07-27T07:30:18.058Z,60.7
2022-07-27T07:35:22.725Z,61.2
2022-07-27T07:40:44.677Z,59.6
2022-07-27T07:45:31.827Z,59.6
2022-07-27T07:50:35.388Z,57.6
2022-07-27T07:55:39.885Z,58.2
2022-07-27T08:00:44.454Z,56.8
2022-07-27T08:05:49.006Z,57.1
2022-07-27T08:10:52.485Z,55.3
2022-07-27T08:15:57.069Z,57.4
2022-07-27T08:21:01.582Z,59.7
2022-07-27T08:26:07.988Z,58.5
2022-07-27T08:31:14.807Z,55.5
2022-07-27T08:36:14.225Z,54.5
2022-07-27T08:41:17.763Z,54.2
2022-07-27T08:46:22.320Z,57.5
2022-07-27T08:51:26.866Z,57
2022-07-27T08:56:30.359Z,57.5
2022-07-27T09:01:35.033Z,56.4
2022-07-27T09:06:39.437Z,53.7
2022-07-27T09:11:44.000Z,55.5
2022-07-27T09:17:28.482Z,56.2
2022-07-27T09:21:52.065Z,55.6
2022-07-27T09:26:56.639Z,55.9
2022-07-27T09:32:00.153Z,54.4
2022-07-27T09:37:05.647Z,54.7
2022-07-27T09:42:08.395Z,50.3
2022-07-27T09:47:12.790Z,51.6
2022-07-27T09:52:17.326Z,54
2022-07-27T09:57:20.899Z,54.7
2022-07-27T10:02:25.524Z,56.2
2022-07-27T10:07:29.965Z,56.9
2022-07-27T10:12:33.666Z,55.8
2022-07-27T10:17:38.062Z,49.2
2022-07-27T10:22:42.671Z,50.7
2022-07-27T10:27:46.134Z,49.7
2022-07-27T10:32:50.637Z,51.5
2022-07-27T10:37:55.204Z,50.9
2022-07-27T10:42:58.753Z,48.9
2022-07-27T10:48:03.284Z,51.6
2022-07-27T10:53:07.834Z,48.1
2022-07-27T10:58:12.409Z,46.8
2022-07-27T11:03:15.901Z,43.8
2022-07-27T11:08:39.637Z,46.5
2022-07-27T11:13:25.019Z,44.7
2022-07-27T11:18:28.739Z,45.5
2022-07-27T11:23:53.434Z,48.4
2022-07-27T11:28:37.588Z,45.6
2022-07-27T11:33:41.178Z,51.2
2022-07-27T11:38:45.709Z,50.7
2022-07-27T11:43:50.240Z,51.9
2022-07-27T11:49:06.504Z,51.5
2022-07-27T11:53:58.358Z,48.2
2022-07-27T11:59:02.887Z,44.5
2022-07-27T12:04:07.409Z,42.9
2022-07-27T12:09:11.404Z,46.3
2022-07-27T12:14:15.469Z,45.8
2022-07-27T12:19:20.039Z,49.3
2022-07-27T12:24:23.569Z,50.4
2022-07-27T12:29:28.113Z,51.9
2022-07-27T12:34:32.629Z,47.7
2022-07-27T12:39:36.229Z,44.5
2022-07-27T12:44:40.760Z,46.2
2022-07-27T12:49:46.669Z,48.9
2022-07-27T12:54:48.794Z,49.7
2022-07-27T12:59:53.360Z,47.5
2022-07-27T13:04:57.918Z,45.2
2022-07-27T13:10:04.049Z,44.7
2022-07-27T13:15:05.962Z,44.9
2022-07-27T13:20:10.505Z,47.1
2022-07-27T13:25:15.467Z,45.4
2022-07-27T13:30:18.617Z,50.5
2022-07-27T13:35:23.167Z,44.6
2022-07-27T13:40:27.698Z,44
2022-07-27T13:45:42.222Z,45.3
2022-07-27T13:50:35.780Z,49.2
2022-07-27T13:55:39.291Z,50.9
2022-07-27T14:00:43.942Z,50.5
2022-07-27T14:05:49.641Z,49.8
2022-07-27T14:10:51.913Z,50.2
2022-07-27T14:15:56.647Z,48.3
2022-07-27T14:21:01.018Z,48.5
2022-07-27T14:26:04.580Z,49
2022-07-27T14:31:09.299Z,46.7
2022-07-27T14:36:13.699Z,44
2022-07-27T14:41:17.363Z,42.5
2022-07-27T14:46:21.840Z,43.5
2022-07-27T14:51:26.267Z,45.2
2022-07-27T14:56:30.813Z,49.9
2022-07-27T15:01:34.422Z,51.1
2022-07-27T15:06:39.403Z,51.4
2022-07-27T15:11:43.454Z,51
2022-07-27T15:16:47.029Z,49
2022-07-27T15:21:51.501Z,48
2022-07-27T15:26:56.068Z,47.1
2022-07-27T15:31:59.646Z,46.2
2022-07-27T15:37:04.115Z,44.7
2022-07-27T15:42:08.655Z,44.9
2022-07-27T15:47:12.292Z,45.3
2022-07-27T15:52:16.780Z,46.4
2022-07-27T15:57:21.298Z,47.3
2022-07-27T16:02:25.823Z,47.4
2022-07-27T16:07:29.368Z,48.3
2022-07-27T16:12:38.171Z,47
2022-07-27T16:17:38.440Z,47.1
2022-07-27T16:22:42.007Z,47.9
2022-07-27T16:27:46.515Z,48.8
2022-07-27T16:32:51.067Z,47.5
2022-07-27T16:37:54.652Z,49
2022-07-27T16:42:59.154Z,49.8
2022-07-27T16:48:03.706Z,49.1
2022-07-27T16:53:07.227Z,48.5
2022-07-27T16:58:11.723Z,48.4
2022-07-27T17:03:16.312Z,48.9
2022-07-27T17:08:20.805Z,47.5
2022-07-27T17:13:33.716Z,49.1
2022-07-27T17:18:28.936Z,48.1
2022-07-27T17:23:33.463Z,49.6
2022-07-27T17:28:37.031Z,49.4
2022-07-27T17:33:41.566Z,49.4
2022-07-27T17:38:46.069Z,50.2
2022-07-27T17:43:49.608Z,50.7
2022-07-27T17:48:54.322Z,52.6
2022-07-27T17:53:58.650Z,53.1
2022-07-27T17:59:20.367Z,53.5
2022-07-27T18:04:06.884Z,55.1
2022-07-27T18:09:10.644Z,55.5
2022-07-27T18:14:14.833Z,55.7
2022-07-27T18:19:19.362Z,57
2022-07-27T18:24:22.946Z,57
2022-07-27T18:29:27.477Z,56.8
2022-07-27T18:34:32.017Z,57.1
2022-07-27T18:39:35.555Z,57.5
2022-07-27T18:44:40.074Z,57.8
2022-07-27T18:49:44.646Z,58.3
2022-07-27T18:54:49.134Z,58.5
2022-07-27T18:59:52.693Z,59.8
2022-07-27T19:04:57.217Z,59.7
2022-07-27T19:10:01.747Z,59.8
2022-07-27T19:15:05.320Z,60.1
2022-07-27T19:20:09.931Z,60.5
2022-07-27T19:25:14.378Z,60.7
2022-07-27T19:30:17.914Z,60.2
2022-07-27T19:35:22.462Z,60.4
2022-07-27T19:40:44.661Z,61
2022-07-27T19:45:31.521Z,60.7
2022-07-27T19:50:35.091Z,61.5
2022-07-27T19:55:39.619Z,61.4
2022-07-27T20:00:44.132Z,61.6
2022-07-27T20:05:47.729Z,61.6
2022-07-27T20:10:52.223Z,62.2
2022-07-27T20:15:56.780Z,62.3
2022-07-27T20:21:00.353Z,62.1
2022-07-27T20:26:04.830Z,62.5
2022-07-27T20:31:09.480Z,62.6
2022-07-27T20:36:12.948Z,62.5
2022-07-27T20:41:17.475Z,62.7
2022-07-27T20:46:22.098Z,63.1
2022-07-27T20:51:26.524Z,63.1
2022-07-27T20:56:30.068Z,63.5
2022-07-27T21:01:34.693Z,63.7
2022-07-27T21:06:39.126Z,63.8
2022-07-27T21:11:42.718Z,64.3
2022-07-27T21:16:47.294Z,64.8
2022-07-27T21:21:51.761Z,65.3
2022-07-27T21:26:55.348Z,66.2
2022-07-27T21:31:59.854Z,66.9
2022-07-27T21:37:04.395Z,67
2022-07-27T21:42:07.939Z,67.2
2022-07-27T21:47:14.341Z,67.2
2022-07-27T21:52:17.003Z,67.2
2022-07-27T21:57:21.535Z,67.4
2022-07-27T22:02:28.121Z,67.8
2022-07-27T22:07:29.594Z,68.1
2022-07-27T22:12:34.197Z,68.9
2022-07-27T22:17:50.616Z,69.4
2022-07-27T22:22:41.293Z,69
2022-07-27T22:27:45.821Z,69.5
2022-07-27T22:32:50.301Z,69.9
2022-07-27T22:37:53.877Z,70.5
2022-07-27T22:42:58.427Z,71.2
2022-07-27T22:48:02.958Z,71.7
2022-07-27T22:53:07.490Z,72
2022-07-27T22:58:11.054Z,72.4
2022-07-27T23:03:15.601Z,73.2
2022-07-27T23:08:20.128Z,73.3
2022-07-27T23:13:23.659Z,73
2022-07-27T23:18:28.180Z,73.2
2022-07-27T23:23:35.834Z,73.6
2022-07-27T23:28:36.275Z,73.4
2022-07-27T23:33:40.773Z,74.2
2022-07-27T23:38:45.329Z,75.1
2022-07-27T23:43:48.869Z,75.1
2022-07-27T23:48:53.493Z,74.8
2022-07-27T23:53:57.948Z,74.8
2022-07-27T23:59:02.485Z,75.2
